Odin — OXIM2 — position and weather

sailwx.info

Track history (hours):
 
Tides and Currents Weather Stations Pressure Air Temp Water Temp Dewpoint Dewpoint Depression Visibility Wind Speed Wind Dir Waves Ship Positions

Odin

Last reported at 2018-Apr-21 14:07 UTC. Time now 2018-Apr-25 03:00 UTC.
Position N 62°27' E 006°03'.

Length 28 m; draft 3 m.

Type: Tug. MMSI: 219022300.

Date/timePositionNaut miles runAvg speedWind from/ knotsBaromVisibWave heightAir tempDewpointWater temp
2018-Apr-21 14:07N 62°27' E 006°03'1 9.1
2018-Apr-21 14:00N 62°28' E 006°04'2 4.5
2018-Apr-21 13:27N 62°28' E 006°09'0 0.0
2018-Apr-21 12:55N 62°28' E 006°09'0 0.0
2018-Apr-21 12:24N 62°28' E 006°09'0 0.1
2018-Apr-21 11:59N 62°28' E 006°09'3 5.5
2018-Apr-21 11:29N 62°27' E 006°04'3 6.2
2018-Apr-21 11:00N 62°29' E 006°08'4 8.2
2018-Apr-21 10:30N 62°33' E 006°11'8 7.2
2018-Apr-21 09:24N 62°38' E 006°26'9 7.4
2018-Apr-21 08:13N 62°40' E 006°44'9 6.4
2018-Apr-21 06:45N 62°47' E 006°57'2 3.4
2018-Apr-21 06:17N 62°48' E 006°57'1 2.8
2018-Apr-21 06:00N 62°48' E 006°55'1 1.5
2018-Apr-21 05:30N 62°48' E 006°56'1 0.5
2018-Apr-21 03:44N 62°48' E 006°58'17 2.9
2018-Apr-20 21:41N 62°38' E 006°27'6 4.0
2018-Apr-20 20:16N 62°36' E 006°15'1 4.9
2018-Apr-20 20:00N 62°35' E 006°13'2 3.9
2018-Apr-20 19:30N 62°33' E 006°10'2 4.2
2018-Apr-20 19:00N 62°31' E 006°09'2 3.9
2018-Apr-20 18:30N 62°29' E 006°08'2 4.1
2018-Apr-20 18:00N 62°28' E 006°04'  
2018-Apr-18 13:23N 59°18' E 005°20'2 5.6
2018-Apr-18 13:00N 59°15' E 005°21'3 5.5
2018-Apr-18 12:30N 59°13' E 005°21'3 5.7
2018-Apr-18 12:00N 59°10' E 005°22'3 5.6
2018-Apr-18 11:30N 59°07' E 005°21'3 5.6
2018-Apr-18 11:00N 59°04' E 005°21'3 5.4
2018-Apr-18 10:30N 59°02' E 005°21'3 5.3
2018-Apr-18 10:00N 58°59' E 005°21'3 5.5
2018-Apr-18 09:30N 58°56' E 005°22'3 5.8
2018-Apr-18 09:00N 58°53' E 005°23'3 6.4
2018-Apr-18 08:30N 58°50' E 005°23'4 7.1
2018-Apr-18 08:00N 58°47' E 005°24'4 7.0
2018-Apr-18 07:30N 58°43' E 005°27'3 6.0
2018-Apr-18 07:00N 58°41' E 005°29'3 5.5
2018-Apr-18 06:30N 58°38' E 005°31'3 5.2
2018-Apr-18 06:00N 58°36' E 005°34'3 4.9
2018-Apr-18 05:30N 58°34' E 005°36'2 5.0
2018-Apr-18 05:00N 58°32' E 005°38'3 5.5
2018-Apr-18 04:30N 58°30' E 005°41'3 5.3
2018-Apr-18 03:59N 58°28' E 005°45'2 5.3
2018-Apr-18 03:30N 58°26' E 005°49'3 6.5
2018-Apr-18 03:00N 58°23' E 005°53'3 6.3
2018-Apr-18 02:31N 58°21' E 005°57'3 6.1
2018-Apr-18 02:00N 58°19' E 006°02'3 6.1
2018-Apr-18 01:29N 58°17' E 006°06'3 6.2
2018-Apr-18 01:00N 58°15' E 006°11'3 6.3
2018-Apr-18 00:30N 58°13' E 006°15'3 6.4
2018-Apr-18 00:00N 58°11' E 006°20'3 6.4
2018-Apr-17 23:30N 58°09' E 006°24'3 6.5
2018-Apr-17 23:00N 58°07' E 006°29'3 6.1
2018-Apr-17 22:30N 58°05' E 006°33'3 5.6
2018-Apr-17 22:00N 58°03' E 006°37'3 5.3
2018-Apr-17 21:31N 58°02' E 006°41'3 5.2
2018-Apr-17 21:00N 58°00' E 006°45'3 5.1
2018-Apr-17 20:30N 57°59' E 006°49'2 5.0
2018-Apr-17 20:00N 57°58' E 006°54'2 5.0
2018-Apr-17 19:30N 57°57' E 006°58'2 4.8
2018-Apr-17 19:00N 57°57' E 007°03'2 4.7
2018-Apr-17 18:30N 57°56' E 007°07'2 4.8
2018-Apr-17 18:00N 57°56' E 007°12'2 4.8
2018-Apr-17 17:30N 57°56' E 007°16'2 4.9
2018-Apr-17 17:00N 57°55' E 007°21'33 5.2
2018-Apr-17 10:34N 57°53' E 008°23'34 5.7
2018-Apr-17 04:34N 57°50' E 009°27'0 5.3
2018-Apr-17 04:30N 57°50' E 009°28'3 5.0
2018-Apr-17 03:59N 57°50' E 009°32'2 4.7
2018-Apr-17 03:28N 57°50' E 009°37'2 5.0
2018-Apr-17 02:59N 57°49' E 009°42'3 5.2
2018-Apr-17 02:30N 57°49' E 009°46'18 5.2
2018-Apr-16 23:07N 57°48' E 010°19'1 4.7
2018-Apr-16 22:56N 57°47' E 010°21'2 4.7
2018-Apr-16 22:28N 57°47' E 010°25'2 4.5
2018-Apr-16 22:00N 57°47' E 010°29'2 4.4
2018-Apr-16 21:30N 57°47' E 010°33'2 4.3
2018-Apr-16 21:00N 57°47' E 010°37'2 4.6
2018-Apr-16 20:30N 57°47' E 010°41'2 4.3
2018-Apr-16 20:00N 57°45' E 010°43'3 6.6
2018-Apr-16 19:30N 57°43' E 010°38'0 0.3
2018-Apr-16 18:56N 57°42' E 010°38'0 0.0
2018-Apr-16 18:23N 57°42' E 010°38'0 0.0
2018-Apr-16 17:59N 57°42' E 010°38'0 0.0
2018-Apr-16 17:29N 57°42' E 010°38'0 0.0
2018-Apr-16 16:59N 57°42' E 010°38'0 0.1
2018-Apr-16 16:23N 57°42' E 010°38'0 0.2
2018-Apr-16 16:00N 57°42' E 010°38'2 3.8
2018-Apr-16 15:31N 57°41' E 010°38'3 5.6
2018-Apr-16 15:01N 57°38' E 010°38'3 5.6
2018-Apr-16 14:30N 57°35' E 010°39'3 5.7
2018-Apr-16 14:00N 57°32' E 010°40'3 5.7
2018-Apr-16 13:31N 57°29' E 010°40'3 5.8
2018-Apr-16 13:00N 57°26' E 010°41'3 6.2
2018-Apr-16 12:30N 57°23' E 010°42'3 6.2
2018-Apr-16 12:00N 57°20' E 010°44'93 5.3
2018-Apr-15 18:26N 56°08' E 012°31'3 6.5
2018-Apr-15 18:00N 56°06' E 012°35'3 6.5
2018-Apr-15 17:31N 56°04' E 012°39'3 5.7
2018-Apr-15 17:01N 56°01' E 012°41'3 5.3
2018-Apr-15 16:31N 55°59' E 012°42'3 5.1
2018-Apr-15 16:01N 55°56' E 012°43'2 4.9
2018-Apr-15 15:30N 55°54' E 012°44'3 5.1
2018-Apr-15 15:01N 55°51' E 012°44'3 5.2
2018-Apr-15 14:31N 55°49' E 012°43'3 5.2
2018-Apr-15 14:01N 55°46' E 012°43'3 5.1
2018-Apr-15 13:31N 55°44' E 012°42'2 4.9
2018-Apr-15 13:01N 55°41' E 012°41'2 4.8
2018-Apr-15 12:31N 55°39' E 012°42'2 4.3
2018-Apr-15 12:01N 55°37' E 012°42'2 4.3
2018-Apr-15 11:31N 55°35' E 012°43'2 4.6
2018-Apr-15 11:00N 55°32' E 012°43'2 4.8
2018-Apr-15 10:31N 55°30' E 012°43'3 4.9
2018-Apr-15 10:00N 55°28' E 012°42'2 5.0
2018-Apr-15 09:31N 55°25' E 012°42'3 5.2
2018-Apr-15 09:01N 55°23' E 012°41'3 5.2
2018-Apr-15 08:30N 55°20' E 012°41'3 5.2
2018-Apr-15 08:01N 55°17' E 012°40'3 5.2
2018-Apr-15 07:30N 55°15' E 012°40'3 5.1
2018-Apr-15 07:00N 55°12' E 012°42'3 5.2
2018-Apr-15 06:30N 55°10' E 012°45'106 5.2
2018-Apr-14 09:55N 53°43' E 014°28'2 5.4
2018-Apr-14 09:28N 53°41' E 014°30'3 5.8
2018-Apr-14 08:57N 53°39' E 014°34'3 5.7
2018-Apr-14 08:27N 53°36' E 014°35'3 5.7
2018-Apr-14 07:57N 53°33' E 014°37'3 5.4
2018-Apr-14 07:27N 53°31' E 014°38'3 5.5
2018-Apr-14 06:57N 53°28' E 014°36'2 4.2
2018-Apr-14 06:28N 53°26' E 014°35'0 0.0
2018-Apr-14 05:58N 53°26' E 014°35'0 0.0
2018-Apr-14 05:25N 53°26' E 014°35'0 0.0
2018-Apr-14 04:58N 53°26' E 014°35'0 0.0
2018-Apr-14 04:28N 53°26' E 014°35'0 0.0
2018-Apr-14 03:58N 53°26' E 014°35'0 0.0
2018-Apr-14 03:28N 53°26' E 014°35'0 0.0
2018-Apr-14 02:58N 53°26' E 014°35'0 0.0
2018-Apr-14 02:28N 53°26' E 014°35'0 0.0
2018-Apr-14 01:58N 53°26' E 014°35'0 0.0
2018-Apr-14 01:28N 53°26' E 014°35'0 0.0
2018-Apr-14 00:58N 53°26' E 014°35'0 0.0
2018-Apr-14 00:25N 53°26' E 014°35'0 0.0
2018-Apr-13 23:55N 53°26' E 014°35'0 0.0
2018-Apr-13 23:25N 53°26' E 014°35'0 0.0
2018-Apr-13 22:58N 53°26' E 014°35'0 0.0
2018-Apr-13 22:28N 53°26' E 014°35'0 0.0
2018-Apr-13 21:55N 53°26' E 014°35'0 0.0
2018-Apr-13 21:25N 53°26' E 014°35'0 0.0
2018-Apr-13 20:55N 53°26' E 014°35'0 0.0
2018-Apr-13 20:22N 53°26' E 014°35'0 0.0
2018-Apr-13 19:55N 53°26' E 014°35'0 0.0
2018-Apr-13 19:25N 53°26' E 014°35'0 0.0
2018-Apr-13 18:55N 53°26' E 014°35'0 0.0
2018-Apr-13 18:25N 53°26' E 014°35'0 0.0
2018-Apr-13 17:52N 53°26' E 014°35'0 0.0
2018-Apr-13 17:28N 53°26' E 014°35'0 0.0
2018-Apr-13 16:58N 53°26' E 014°35'0 0.0
2018-Apr-13 16:28N 53°26' E 014°35'0 0.0
2018-Apr-13 15:55N 53°26' E 014°35'0 0.0
2018-Apr-13 15:28N 53°26' E 014°35'0 0.0
2018-Apr-13 14:58N 53°26' E 014°35'0 0.0
2018-Apr-13 14:28N 53°26' E 014°35'0 0.0
2018-Apr-13 13:58N 53°26' E 014°35'0 0.0
2018-Apr-13 13:19N 53°26' E 014°35'0 0.0
2018-Apr-13 12:58N 53°26' E 014°35'0 0.0
2018-Apr-13 12:25N 53°26' E 014°35'0 0.0
2018-Apr-13 11:58N 53°26' E 014°35'0 0.0
2018-Apr-13 11:28N 53°26' E 014°35'0 0.0
2018-Apr-13 10:55N 53°26' E 014°35'0 0.0
2018-Apr-13 10:28N 53°26' E 014°35'0 0.0
2018-Apr-13 09:58N 53°26' E 014°35'0 0.0
2018-Apr-13 09:25N 53°26' E 014°35'0 0.0
2018-Apr-13 08:55N 53°26' E 014°35'0 0.0
2018-Apr-13 08:25N 53°26' E 014°35'0 0.0
2018-Apr-13 07:55N 53°26' E 014°35'0 0.1
2018-Apr-13 07:25N 53°26' E 014°35'0 0.0
2018-Apr-13 06:58N 53°26' E 014°35'0 0.0
2018-Apr-13 06:28N 53°26' E 014°35'0 0.0
2018-Apr-13 05:58N 53°26' E 014°35'0 0.0
2018-Apr-13 05:22N 53°26' E 014°35'0 0.0
2018-Apr-13 04:55N 53°26' E 014°35'0 0.0
2018-Apr-13 04:25N 53°26' E 014°35'0 0.0
2018-Apr-13 03:55N 53°26' E 014°35'0 0.0
2018-Apr-13 03:28N 53°26' E 014°35'0 0.0
2018-Apr-13 02:58N 53°26' E 014°35'0 0.0
2018-Apr-13 02:28N 53°26' E 014°35'0 0.0
2018-Apr-13 01:58N 53°26' E 014°35'0 0.0
2018-Apr-13 01:28N 53°26' E 014°35'0 0.0
2018-Apr-13 00:58N 53°26' E 014°35'0 0.0
2018-Apr-13 00:25N 53°26' E 014°35'0 0.0
2018-Apr-12 23:55N 53°26' E 014°35'0 0.0
2018-Apr-12 23:25N 53°26' E 014°35'0 0.0
2018-Apr-12 22:58N 53°26' E 014°35'0 0.0
2018-Apr-12 22:28N 53°26' E 014°35'0 0.0
2018-Apr-12 21:55N 53°26' E 014°35'0 0.0
2018-Apr-12 21:25N 53°26' E 014°35'0 0.0
2018-Apr-12 19:46N 53°26' E 014°35'0 0.0
2018-Apr-12 19:28N 53°26' E 014°35'0 0.0
2018-Apr-12 18:55N 53°26' E 014°35'0 0.0
2018-Apr-12 18:28N 53°26' E 014°35'0 0.0
2018-Apr-12 17:55N 53°26' E 014°35'0 0.0
2018-Apr-12 17:25N 53°26' E 014°35'0 0.0
2018-Apr-12 16:55N 53°26' E 014°35'0 0.0
2018-Apr-12 16:22N 53°26' E 014°35'0 0.0
2018-Apr-12 15:58N 53°26' E 014°35'0 0.0
2018-Apr-12 15:28N 53°26' E 014°35'0 0.0
2018-Apr-12 14:58N 53°26' E 014°35'0 0.0
2018-Apr-12 14:25N 53°26' E 014°35'0 0.0
2018-Apr-12 13:55N 53°26' E 014°35'0 0.0
2018-Apr-12 13:27N 53°26' E 014°35'0 0.0
2018-Apr-12 12:57N 53°26' E 014°35'0 0.0
2018-Apr-12 12:27N 53°26' E 014°35'0 0.0
2018-Apr-12 11:57N 53°26' E 014°35'0 0.0
2018-Apr-12 11:27N 53°26' E 014°35'0 0.0
2018-Apr-12 10:56N 53°26' E 014°35'0 0.0
2018-Apr-12 10:26N 53°26' E 014°35'0 0.0
2018-Apr-12 09:46N 53°26' E 014°35'0 1.1
2018-Apr-12 09:26N 53°26' E 014°35'4 8.7
2018-Apr-12 08:56N 53°30' E 014°38'4 8.1
2018-Apr-12 08:26N 53°34' E 014°36'4 8.6
2018-Apr-12 07:56N 53°39' E 014°34'98 8.3
2018-Apr-11 20:07N 55°00' E 012°59'3 8.8
2018-Apr-11 19:45N 55°03' E 012°58'9 7.9
2018-Apr-11 18:40N 55°09' E 012°47'1 8.0
2018-Apr-11 18:30N 55°10' E 012°45'4 8.2
2018-Apr-11 18:00N 55°12' E 012°39'4 8.3
2018-Apr-11 17:30N 55°16' E 012°38'4 9.0
2018-Apr-11 17:00N 55°21' E 012°38'4 8.8
2018-Apr-11 16:30N 55°25' E 012°39'4 8.8
2018-Apr-11 16:00N 55°29' E 012°41'4 8.2
2018-Apr-11 15:30N 55°33' E 012°42'4 7.6
2018-Apr-11 15:00N 55°37' E 012°42'4 7.2
2018-Apr-11 14:30N 55°41' E 012°41'  
Track history (hours):
 
Tides and Currents Weather Stations Pressure Air Temp Water Temp Dewpoint Dewpoint Depression Visibility Wind Speed Wind Dir Waves Ship Positions

Odin

Last reported at 2018-Apr-21 14:07 UTC. Time now 2018-Apr-25 03:00 UTC.
Position N 62°27' E 006°03'.

Length 28 m; draft 3 m.

Type: Tug. MMSI: 219022300.

Date/timePositionNaut miles runAvg speedWind from/ knotsBaromVisibWave heightAir tempDewpointWater temp
2018-Apr-21 14:07N 62°27' E 006°03'1 9.1
2018-Apr-21 14:00N 62°28' E 006°04'2 4.5
2018-Apr-21 13:27N 62°28' E 006°09'0 0.0
2018-Apr-21 12:55N 62°28' E 006°09'0 0.0
2018-Apr-21 12:24N 62°28' E 006°09'0 0.1
2018-Apr-21 11:59N 62°28' E 006°09'3 5.5
2018-Apr-21 11:29N 62°27' E 006°04'3 6.2
2018-Apr-21 11:00N 62°29' E 006°08'4 8.2
2018-Apr-21 10:30N 62°33' E 006°11'8 7.2
2018-Apr-21 09:24N 62°38' E 006°26'9 7.4
2018-Apr-21 08:13N 62°40' E 006°44'9 6.4
2018-Apr-21 06:45N 62°47' E 006°57'2 3.4
2018-Apr-21 06:17N 62°48' E 006°57'1 2.8
2018-Apr-21 06:00N 62°48' E 006°55'1 1.5
2018-Apr-21 05:30N 62°48' E 006°56'1 0.5
2018-Apr-21 03:44N 62°48' E 006°58'17 2.9
2018-Apr-20 21:41N 62°38' E 006°27'6 4.0
2018-Apr-20 20:16N 62°36' E 006°15'1 4.9
2018-Apr-20 20:00N 62°35' E 006°13'2 3.9
2018-Apr-20 19:30N 62°33' E 006°10'2 4.2
2018-Apr-20 19:00N 62°31' E 006°09'2 3.9
2018-Apr-20 18:30N 62°29' E 006°08'2 4.1
2018-Apr-20 18:00N 62°28' E 006°04'  
2018-Apr-18 13:23N 59°18' E 005°20'2 5.6
2018-Apr-18 13:00N 59°15' E 005°21'3 5.5
2018-Apr-18 12:30N 59°13' E 005°21'3 5.7
2018-Apr-18 12:00N 59°10' E 005°22'3 5.6
2018-Apr-18 11:30N 59°07' E 005°21'3 5.6
2018-Apr-18 11:00N 59°04' E 005°21'3 5.4
2018-Apr-18 10:30N 59°02' E 005°21'3 5.3
2018-Apr-18 10:00N 58°59' E 005°21'3 5.5
2018-Apr-18 09:30N 58°56' E 005°22'3 5.8
2018-Apr-18 09:00N 58°53' E 005°23'3 6.4
2018-Apr-18 08:30N 58°50' E 005°23'4 7.1
2018-Apr-18 08:00N 58°47' E 005°24'4 7.0
2018-Apr-18 07:30N 58°43' E 005°27'3 6.0
2018-Apr-18 07:00N 58°41' E 005°29'3 5.5
2018-Apr-18 06:30N 58°38' E 005°31'3 5.2
2018-Apr-18 06:00N 58°36' E 005°34'3 4.9
2018-Apr-18 05:30N 58°34' E 005°36'2 5.0
2018-Apr-18 05:00N 58°32' E 005°38'3 5.5
2018-Apr-18 04:30N 58°30' E 005°41'3 5.3
2018-Apr-18 03:59N 58°28' E 005°45'2 5.3
2018-Apr-18 03:30N 58°26' E 005°49'3 6.5
2018-Apr-18 03:00N 58°23' E 005°53'3 6.3
2018-Apr-18 02:31N 58°21' E 005°57'3 6.1
2018-Apr-18 02:00N 58°19' E 006°02'3 6.1
2018-Apr-18 01:29N 58°17' E 006°06'3 6.2
2018-Apr-18 01:00N 58°15' E 006°11'3 6.3
2018-Apr-18 00:30N 58°13' E 006°15'3 6.4
2018-Apr-18 00:00N 58°11' E 006°20'3 6.4
2018-Apr-17 23:30N 58°09' E 006°24'3 6.5
2018-Apr-17 23:00N 58°07' E 006°29'3 6.1
2018-Apr-17 22:30N 58°05' E 006°33'3 5.6
2018-Apr-17 22:00N 58°03' E 006°37'3 5.3
2018-Apr-17 21:31N 58°02' E 006°41'3 5.2
2018-Apr-17 21:00N 58°00' E 006°45'3 5.1
2018-Apr-17 20:30N 57°59' E 006°49'2 5.0
2018-Apr-17 20:00N 57°58' E 006°54'2 5.0
2018-Apr-17 19:30N 57°57' E 006°58'2 4.8
2018-Apr-17 19:00N 57°57' E 007°03'2 4.7
2018-Apr-17 18:30N 57°56' E 007°07'2 4.8
2018-Apr-17 18:00N 57°56' E 007°12'2 4.8
2018-Apr-17 17:30N 57°56' E 007°16'2 4.9
2018-Apr-17 17:00N 57°55' E 007°21'33 5.2
2018-Apr-17 10:34N 57°53' E 008°23'34 5.7
2018-Apr-17 04:34N 57°50' E 009°27'0 5.3
2018-Apr-17 04:30N 57°50' E 009°28'3 5.0
2018-Apr-17 03:59N 57°50' E 009°32'2 4.7
2018-Apr-17 03:28N 57°50' E 009°37'2 5.0
2018-Apr-17 02:59N 57°49' E 009°42'3 5.2
2018-Apr-17 02:30N 57°49' E 009°46'18 5.2
2018-Apr-16 23:07N 57°48' E 010°19'1 4.7
2018-Apr-16 22:56N 57°47' E 010°21'2 4.7
2018-Apr-16 22:28N 57°47' E 010°25'2 4.5
2018-Apr-16 22:00N 57°47' E 010°29'2 4.4
2018-Apr-16 21:30N 57°47' E 010°33'2 4.3
2018-Apr-16 21:00N 57°47' E 010°37'2 4.6
2018-Apr-16 20:30N 57°47' E 010°41'2 4.3
2018-Apr-16 20:00N 57°45' E 010°43'3 6.6
2018-Apr-16 19:30N 57°43' E 010°38'0 0.3
2018-Apr-16 18:56N 57°42' E 010°38'0 0.0
2018-Apr-16 18:23N 57°42' E 010°38'0 0.0
2018-Apr-16 17:59N 57°42' E 010°38'0 0.0
2018-Apr-16 17:29N 57°42' E 010°38'0 0.0
2018-Apr-16 16:59N 57°42' E 010°38'0 0.1
2018-Apr-16 16:23N 57°42' E 010°38'0 0.2
2018-Apr-16 16:00N 57°42' E 010°38'2 3.8
2018-Apr-16 15:31N 57°41' E 010°38'3 5.6
2018-Apr-16 15:01N 57°38' E 010°38'3 5.6
2018-Apr-16 14:30N 57°35' E 010°39'3 5.7
2018-Apr-16 14:00N 57°32' E 010°40'3 5.7
2018-Apr-16 13:31N 57°29' E 010°40'3 5.8
2018-Apr-16 13:00N 57°26' E 010°41'3 6.2
2018-Apr-16 12:30N 57°23' E 010°42'3 6.2
2018-Apr-16 12:00N 57°20' E 010°44'93 5.3
2018-Apr-15 18:26N 56°08' E 012°31'3 6.5
2018-Apr-15 18:00N 56°06' E 012°35'3 6.5
2018-Apr-15 17:31N 56°04' E 012°39'3 5.7
2018-Apr-15 17:01N 56°01' E 012°41'3 5.3
2018-Apr-15 16:31N 55°59' E 012°42'3 5.1
2018-Apr-15 16:01N 55°56' E 012°43'2 4.9
2018-Apr-15 15:30N 55°54' E 012°44'3 5.1
2018-Apr-15 15:01N 55°51' E 012°44'3 5.2
2018-Apr-15 14:31N 55°49' E 012°43'3 5.2
2018-Apr-15 14:01N 55°46' E 012°43'3 5.1
2018-Apr-15 13:31N 55°44' E 012°42'2 4.9
2018-Apr-15 13:01N 55°41' E 012°41'2 4.8
2018-Apr-15 12:31N 55°39' E 012°42'2 4.3
2018-Apr-15 12:01N 55°37' E 012°42'2 4.3
2018-Apr-15 11:31N 55°35' E 012°43'2 4.6
2018-Apr-15 11:00N 55°32' E 012°43'2 4.8
2018-Apr-15 10:31N 55°30' E 012°43'3 4.9
2018-Apr-15 10:00N 55°28' E 012°42'2 5.0
2018-Apr-15 09:31N 55°25' E 012°42'3 5.2
2018-Apr-15 09:01N 55°23' E 012°41'3 5.2
2018-Apr-15 08:30N 55°20' E 012°41'3 5.2
2018-Apr-15 08:01N 55°17' E 012°40'3 5.2
2018-Apr-15 07:30N 55°15' E 012°40'3 5.1
2018-Apr-15 07:00N 55°12' E 012°42'3 5.2
2018-Apr-15 06:30N 55°10' E 012°45'106 5.2
2018-Apr-14 09:55N 53°43' E 014°28'2 5.4
2018-Apr-14 09:28N 53°41' E 014°30'3 5.8
2018-Apr-14 08:57N 53°39' E 014°34'3 5.7
2018-Apr-14 08:27N 53°36' E 014°35'3 5.7
2018-Apr-14 07:57N 53°33' E 014°37'3 5.4
2018-Apr-14 07:27N 53°31' E 014°38'3 5.5
2018-Apr-14 06:57N 53°28' E 014°36'2 4.2
2018-Apr-14 06:28N 53°26' E 014°35'0 0.0
2018-Apr-14 05:58N 53°26' E 014°35'0 0.0
2018-Apr-14 05:25N 53°26' E 014°35'0 0.0
2018-Apr-14 04:58N 53°26' E 014°35'0 0.0
2018-Apr-14 04:28N 53°26' E 014°35'0 0.0
2018-Apr-14 03:58N 53°26' E 014°35'0 0.0
2018-Apr-14 03:28N 53°26' E 014°35'0 0.0
2018-Apr-14 02:58N 53°26' E 014°35'0 0.0
2018-Apr-14 02:28N 53°26' E 014°35'0 0.0
2018-Apr-14 01:58N 53°26' E 014°35'0 0.0
2018-Apr-14 01:28N 53°26' E 014°35'0 0.0
2018-Apr-14 00:58N 53°26' E 014°35'0 0.0
2018-Apr-14 00:25N 53°26' E 014°35'0 0.0
2018-Apr-13 23:55N 53°26' E 014°35'0 0.0
2018-Apr-13 23:25N 53°26' E 014°35'0 0.0
2018-Apr-13 22:58N 53°26' E 014°35'0 0.0
2018-Apr-13 22:28N 53°26' E 014°35'0 0.0
2018-Apr-13 21:55N 53°26' E 014°35'0 0.0
2018-Apr-13 21:25N 53°26' E 014°35'0 0.0
2018-Apr-13 20:55N 53°26' E 014°35'0 0.0
2018-Apr-13 20:22N 53°26' E 014°35'0 0.0
2018-Apr-13 19:55N 53°26' E 014°35'0 0.0
2018-Apr-13 19:25N 53°26' E 014°35'0 0.0
2018-Apr-13 18:55N 53°26' E 014°35'0 0.0
2018-Apr-13 18:25N 53°26' E 014°35'0 0.0
2018-Apr-13 17:52N 53°26' E 014°35'0 0.0
2018-Apr-13 17:28N 53°26' E 014°35'0 0.0
2018-Apr-13 16:58N 53°26' E 014°35'0 0.0
2018-Apr-13 16:28N 53°26' E 014°35'0 0.0
2018-Apr-13 15:55N 53°26' E 014°35'0 0.0
2018-Apr-13 15:28N 53°26' E 014°35'0 0.0
2018-Apr-13 14:58N 53°26' E 014°35'0 0.0
2018-Apr-13 14:28N 53°26' E 014°35'0 0.0
2018-Apr-13 13:58N 53°26' E 014°35'0 0.0
2018-Apr-13 13:19N 53°26' E 014°35'0 0.0
2018-Apr-13 12:58N 53°26' E 014°35'0 0.0
2018-Apr-13 12:25N 53°26' E 014°35'0 0.0
2018-Apr-13 11:58N 53°26' E 014°35'0 0.0
2018-Apr-13 11:28N 53°26' E 014°35'0 0.0
2018-Apr-13 10:55N 53°26' E 014°35'0 0.0
2018-Apr-13 10:28N 53°26' E 014°35'0 0.0
2018-Apr-13 09:58N 53°26' E 014°35'0 0.0
2018-Apr-13 09:25N 53°26' E 014°35'0 0.0
2018-Apr-13 08:55N 53°26' E 014°35'0 0.0
2018-Apr-13 08:25N 53°26' E 014°35'0 0.0
2018-Apr-13 07:55N 53°26' E 014°35'0 0.1
2018-Apr-13 07:25N 53°26' E 014°35'0 0.0
2018-Apr-13 06:58N 53°26' E 014°35'0 0.0
2018-Apr-13 06:28N 53°26' E 014°35'0 0.0
2018-Apr-13 05:58N 53°26' E 014°35'0 0.0
2018-Apr-13 05:22N 53°26' E 014°35'0 0.0
2018-Apr-13 04:55N 53°26' E 014°35'0 0.0
2018-Apr-13 04:25N 53°26' E 014°35'0 0.0
2018-Apr-13 03:55N 53°26' E 014°35'0 0.0
2018-Apr-13 03:28N 53°26' E 014°35'0 0.0
2018-Apr-13 02:58N 53°26' E 014°35'0 0.0
2018-Apr-13 02:28N 53°26' E 014°35'0 0.0
2018-Apr-13 01:58N 53°26' E 014°35'0 0.0
2018-Apr-13 01:28N 53°26' E 014°35'0 0.0
2018-Apr-13 00:58N 53°26' E 014°35'0 0.0
2018-Apr-13 00:25N 53°26' E 014°35'0 0.0
2018-Apr-12 23:55N 53°26' E 014°35'0 0.0
2018-Apr-12 23:25N 53°26' E 014°35'0 0.0
2018-Apr-12 22:58N 53°26' E 014°35'0 0.0
2018-Apr-12 22:28N 53°26' E 014°35'0 0.0
2018-Apr-12 21:55N 53°26' E 014°35'0 0.0
2018-Apr-12 21:25N 53°26' E 014°35'0 0.0
2018-Apr-12 19:46N 53°26' E 014°35'0 0.0
2018-Apr-12 19:28N 53°26' E 014°35'0 0.0
2018-Apr-12 18:55N 53°26' E 014°35'0 0.0
2018-Apr-12 18:28N 53°26' E 014°35'0 0.0
2018-Apr-12 17:55N 53°26' E 014°35'0 0.0
2018-Apr-12 17:25N 53°26' E 014°35'0 0.0
2018-Apr-12 16:55N 53°26' E 014°35'0 0.0
2018-Apr-12 16:22N 53°26' E 014°35'0 0.0
2018-Apr-12 15:58N 53°26' E 014°35'0 0.0
2018-Apr-12 15:28N 53°26' E 014°35'0 0.0
2018-Apr-12 14:58N 53°26' E 014°35'0 0.0
2018-Apr-12 14:25N 53°26' E 014°35'0 0.0
2018-Apr-12 13:55N 53°26' E 014°35'0 0.0
2018-Apr-12 13:27N 53°26' E 014°35'0 0.0
2018-Apr-12 12:57N 53°26' E 014°35'0 0.0
2018-Apr-12 12:27N 53°26' E 014°35'0 0.0
2018-Apr-12 11:57N 53°26' E 014°35'0 0.0
2018-Apr-12 11:27N 53°26' E 014°35'0 0.0
2018-Apr-12 10:56N 53°26' E 014°35'0 0.0
2018-Apr-12 10:26N 53°26' E 014°35'0 0.0
2018-Apr-12 09:46N 53°26' E 014°35'0 1.1
2018-Apr-12 09:26N 53°26' E 014°35'4 8.7
2018-Apr-12 08:56N 53°30' E 014°38'4 8.1
2018-Apr-12 08:26N 53°34' E 014°36'4 8.6
2018-Apr-12 07:56N 53°39' E 014°34'98 8.3
2018-Apr-11 20:07N 55°00' E 012°59'3 8.8
2018-Apr-11 19:45N 55°03' E 012°58'9 7.9
2018-Apr-11 18:40N 55°09' E 012°47'1 8.0
2018-Apr-11 18:30N 55°10' E 012°45'4 8.2
2018-Apr-11 18:00N 55°12' E 012°39'4 8.3
2018-Apr-11 17:30N 55°16' E 012°38'4 9.0
2018-Apr-11 17:00N 55°21' E 012°38'4 8.8
2018-Apr-11 16:30N 55°25' E 012°39'4 8.8
2018-Apr-11 16:00N 55°29' E 012°41'4 8.2
2018-Apr-11 15:30N 55°33' E 012°42'4 7.6
2018-Apr-11 15:00N 55°37' E 012°42'4 7.2
2018-Apr-11 14:30N 55°41' E 012°41'  

Dump ship's entire track history